createdAt,value
2022-11-30T00:01:22.197Z,22.15
2022-11-30T00:03:55.350Z,20.42
2022-11-30T00:06:23.504Z,18.77
2022-11-30T00:08:58.289Z,19.63
2022-11-30T00:11:26.894Z,18.02
2022-11-30T00:13:54.693Z,18.85
2022-11-30T00:16:22.189Z,18.58
2022-11-30T00:18:50.233Z,19.75
2022-11-30T00:21:17.238Z,18.67
2022-11-30T00:23:46.933Z,18.33
2022-11-30T00:26:16.781Z,18.48
2022-11-30T00:28:45.737Z,16.75
2022-11-30T00:31:14.503Z,18.95
2022-11-30T00:33:41.923Z,19.58
2022-11-30T00:36:12.609Z,17.67
2022-11-30T00:38:40.229Z,19.70
2022-11-30T00:41:07.136Z,18.48
2022-11-30T00:43:34.400Z,19.13
2022-11-30T00:46:01.323Z,18.60
2022-11-30T00:48:28.677Z,19.55
2022-11-30T00:50:55.588Z,18.35
2022-11-30T00:53:23.241Z,17.98
2022-11-30T00:55:50.157Z,16.98
2022-11-30T00:58:17.813Z,18.08
2022-11-30T01:00:45.312Z,18.45
2022-11-30T01:03:13.087Z,16.80
2022-11-30T01:05:40.512Z,16.48
2022-11-30T01:08:10.795Z,18.38
2022-11-30T01:10:40.287Z,17.38
2022-11-30T01:13:08.297Z,17.38
2022-11-30T01:15:43.866Z,15.70
2022-11-30T01:18:12.389Z,18.02
2022-11-30T01:20:43.017Z,16.90
2022-11-30T01:23:11.208Z,16.90
2022-11-30T01:25:39.716Z,16.92
2022-11-30T01:28:09.158Z,18.52
2022-11-30T01:30:36.145Z,17.58
2022-11-30T01:33:04.711Z,17.42
2022-11-30T01:35:31.612Z,17.95
2022-11-30T01:37:59.096Z,17.52
2022-11-30T01:40:26.111Z,16.05
2022-11-30T01:42:54.135Z,17.02
2022-11-30T01:45:21.089Z,17.83
2022-11-30T01:47:52.837Z,16.40
2022-11-30T01:50:34.497Z,17.52
2022-11-30T01:53:03.457Z,15.88
2022-11-30T01:55:45.034Z,15.90
2022-11-30T01:58:29.466Z,16.35
2022-11-30T02:00:56.769Z,17.85
2022-11-30T02:03:42.324Z,17.60
2022-11-30T02:06:09.976Z,16.08
2022-11-30T02:08:37.444Z,16.65
2022-11-30T02:11:11.304Z,14.75
2022-11-30T02:14:23.626Z,16.05
2022-11-30T02:17:02.174Z,16.88
2022-11-30T02:19:53.965Z,15.38
2022-11-30T02:22:46.573Z,18.00
2022-11-30T02:25:25.692Z,18.42
2022-11-30T02:28:11.081Z,17.73
2022-11-30T02:30:43.826Z,17.88
2022-11-30T02:33:14.992Z,19.37
2022-11-30T02:35:50.344Z,17.48
2022-11-30T02:38:23.143Z,16.58
2022-11-30T02:40:50.337Z,19.02
2022-11-30T02:43:19.995Z,17.33
2022-11-30T02:45:57.925Z,17.40
2022-11-30T02:49:01.878Z,17.75
2022-11-30T02:51:31.836Z,17.25
2022-11-30T02:53:58.885Z,16.25
2022-11-30T02:56:27.042Z,18.30
2022-11-30T02:58:54.028Z,16.95
2022-11-30T03:01:21.901Z,18.15
2022-11-30T03:03:48.890Z,17.85
2022-11-30T03:06:16.110Z,17.13
2022-11-30T03:08:42.956Z,18.05
2022-11-30T03:11:10.325Z,14.82
2022-11-30T03:13:37.186Z,15.77
2022-11-30T03:16:09.748Z,14.35
2022-11-30T03:18:37.485Z,17.33
2022-11-30T03:21:13.073Z,17.15
2022-11-30T03:23:40.941Z,16.38
2022-11-30T03:26:08.975Z,16.38
2022-11-30T03:28:37.249Z,15.27
2022-11-30T03:31:05.324Z,16.63
2022-11-30T03:33:32.267Z,15.55
2022-11-30T03:36:03.631Z,15.90
2022-11-30T03:38:30.878Z,16.83
2022-11-30T03:41:18.615Z,15.88
2022-11-30T03:43:46.820Z,16.55
2022-11-30T03:46:14.699Z,18.73
2022-11-30T03:48:41.652Z,16.00
2022-11-30T03:51:09.821Z,17.63
2022-11-30T03:53:37.421Z,18.27
2022-11-30T03:56:07.352Z,17.65
2022-11-30T03:58:34.571Z,16.80
2022-11-30T04:01:08.002Z,16.10
2022-11-30T04:06:03.167Z,13.70
2022-11-30T04:08:30.850Z,18.00
2022-11-30T04:11:00.403Z,18.23
2022-11-30T04:13:28.351Z,16.70
2022-11-30T04:15:56.181Z,15.90
2022-11-30T04:18:24.728Z,16.83
2022-11-30T04:20:53.425Z,15.70
2022-11-30T04:23:20.840Z,16.08
2022-11-30T04:25:48.569Z,15.90
2022-11-30T04:28:16.863Z,16.80
2022-11-30T04:30:45.738Z,14.98
2022-11-30T04:33:14.984Z,14.68
2022-11-30T04:35:45.832Z,16.65
2022-11-30T04:38:12.911Z,16.83
2022-11-30T04:40:43.889Z,15.93
2022-11-30T04:43:11.920Z,17.25
2022-11-30T04:45:40.065Z,16.98
2022-11-30T04:48:07.542Z,15.75
2022-11-30T04:50:35.073Z,16.35
2022-11-30T04:53:02.102Z,18.23
2022-11-30T04:55:29.744Z,16.63
2022-11-30T04:57:56.743Z,16.50
2022-11-30T05:00:25.577Z,16.33
2022-11-30T05:02:53.312Z,15.32
2022-11-30T05:05:20.663Z,15.07
2022-11-30T05:07:51.626Z,14.98
2022-11-30T05:10:18.966Z,17.33
2022-11-30T05:12:45.800Z,16.30
2022-11-30T05:15:13.019Z,17.77
2022-11-30T05:17:40.004Z,15.45
2022-11-30T05:20:07.572Z,16.70
2022-11-30T05:22:37.219Z,17.63
2022-11-30T05:25:04.972Z,13.75
2022-11-30T05:27:32.246Z,14.75
2022-11-30T05:29:59.632Z,15.30
2022-11-30T05:32:26.632Z,16.10
2022-11-30T05:34:54.088Z,14.23
2022-11-30T05:37:21.285Z,16.77
2022-11-30T05:39:49.164Z,16.25
2022-11-30T05:42:16.007Z,16.27
2022-11-30T05:44:43.171Z,13.80
2022-11-30T05:47:10.146Z,15.23
2022-11-30T05:49:37.575Z,15.63
2022-11-30T05:52:04.580Z,14.05
2022-11-30T05:54:31.750Z,14.45
2022-11-30T05:56:58.649Z,14.77
2022-11-30T05:59:25.940Z,14.32
2022-11-30T06:01:53.538Z,15.02
2022-11-30T06:04:21.775Z,14.85
2022-11-30T06:06:49.608Z,15.23
2022-11-30T06:09:17.031Z,14.70
2022-11-30T06:11:43.928Z,15.43
2022-11-30T06:14:11.342Z,13.57
2022-11-30T06:16:39.748Z,16.23
2022-11-30T06:19:07.376Z,16.17
2022-11-30T06:21:34.651Z,14.80
2022-11-30T06:24:01.827Z,15.75
2022-11-30T06:26:28.715Z,15.90
2022-11-30T06:28:55.834Z,14.18
2022-11-30T06:31:22.781Z,13.85
2022-11-30T06:33:50.388Z,14.65
2022-11-30T06:36:23.371Z,15.65
2022-11-30T06:38:51.559Z,16.20
2022-11-30T06:41:18.998Z,17.75
2022-11-30T06:43:47.215Z,17.20
2022-11-30T06:46:14.265Z,17.25
2022-11-30T06:48:41.797Z,16.25
2022-11-30T06:51:10.347Z,14.48
2022-11-30T06:53:37.770Z,17.45
2022-11-30T06:56:10.828Z,15.75
2022-11-30T06:58:39.741Z,15.40
2022-11-30T07:01:09.115Z,15.95
2022-11-30T07:03:36.680Z,15.93
2022-11-30T07:06:11.509Z,17.73
2022-11-30T07:08:39.612Z,15.35
2022-11-30T07:11:07.654Z,16.60
2022-11-30T07:13:35.561Z,15.88
2022-11-30T07:16:08.004Z,15.85
2022-11-30T07:21:04.750Z,15.70
2022-11-30T07:23:56.323Z,14.70
2022-11-30T07:26:24.682Z,15.48
2022-11-30T07:28:58.466Z,14.55
2022-11-30T07:31:31.266Z,13.07
2022-11-30T07:33:59.453Z,16.13
2022-11-30T07:36:27.673Z,15.27
2022-11-30T07:38:57.323Z,14.10
2022-11-30T07:41:24.471Z,15.27
2022-11-30T07:43:52.080Z,14.45
2022-11-30T07:46:19.422Z,15.75
2022-11-30T07:48:47.473Z,13.98
2022-11-30T07:51:17.245Z,14.00
2022-11-30T07:53:44.413Z,14.20
2022-11-30T07:56:14.894Z,14.07
2022-11-30T07:58:43.322Z,14.23
2022-11-30T08:01:13.746Z,14.35
2022-11-30T08:03:41.898Z,14.07
2022-11-30T08:06:11.821Z,13.63
2022-11-30T08:08:41.974Z,15.77
2022-11-30T08:11:11.259Z,15.32
2022-11-30T08:13:38.821Z,14.82
2022-11-30T08:16:14.807Z,15.75
2022-11-30T08:18:42.945Z,42.15
2022-11-30T08:21:12.301Z,20.25
2022-11-30T08:23:42.565Z,15.65
2022-11-30T08:26:14.057Z,18.02
2022-11-30T08:28:43.100Z,14.50
2022-11-30T08:31:14.187Z,13.02
2022-11-30T08:33:41.688Z,13.98
2022-11-30T08:36:13.781Z,14.52
2022-11-30T08:38:42.734Z,16.42
2022-11-30T08:41:12.093Z,14.00
2022-11-30T08:43:39.607Z,13.90
2022-11-30T08:46:35.124Z,13.30
2022-11-30T08:49:19.803Z,14.05
2022-11-30T08:54:34.143Z,14.90
2022-11-30T08:57:01.039Z,14.02
2022-11-30T08:59:30.486Z,15.32
2022-11-30T09:01:57.338Z,14.02
2022-11-30T09:04:24.555Z,14.73
2022-11-30T09:06:51.437Z,14.88
2022-11-30T09:09:18.689Z,15.73
2022-11-30T09:11:45.581Z,13.60
2022-11-30T09:14:12.914Z,13.75
2022-11-30T09:16:39.971Z,13.20
2022-11-30T09:19:07.241Z,13.82
2022-11-30T09:21:34.135Z,15.40
2022-11-30T09:24:01.507Z,14.15
2022-11-30T09:26:28.391Z,14.35
2022-11-30T09:28:55.589Z,12.70
2022-11-30T09:31:27.021Z,14.65
2022-11-30T09:33:56.987Z,14.90
2022-11-30T09:36:27.316Z,15.23
2022-11-30T09:38:55.973Z,15.13
2022-11-30T09:41:43.519Z,16.10
2022-11-30T09:44:19.918Z,15.75
2022-11-30T09:46:58.036Z,16.13
2022-11-30T09:49:27.258Z,14.45
2022-11-30T09:51:56.673Z,13.90
2022-11-30T09:54:42.884Z,16.27
2022-11-30T09:57:33.895Z,11.90
2022-11-30T10:00:10.408Z,13.15
2022-11-30T10:02:38.757Z,11.73
2022-11-30T10:05:23.373Z,11.65
2022-11-30T10:08:19.769Z,13.45
2022-11-30T10:10:56.696Z,10.93
2022-11-30T10:13:46.853Z,10.65
2022-11-30T10:16:25.523Z,11.52
2022-11-30T10:19:46.067Z,12.05
2022-11-30T10:22:45.510Z,10.65
2022-11-30T10:25:24.742Z,12.00
2022-11-30T10:27:54.247Z,12.95
2022-11-30T10:30:23.675Z,13.15
2022-11-30T10:32:56.145Z,11.82
2022-11-30T10:35:40.635Z,11.53
2022-11-30T10:38:17.238Z,11.68
2022-11-30T10:41:01.433Z,11.60
2022-11-30T10:43:55.330Z,15.07
2022-11-30T10:46:27.984Z,12.35
2022-11-30T10:49:11.486Z,9.93
2022-11-30T10:51:43.338Z,11.93
2022-11-30T10:54:23.617Z,15.07
2022-11-30T10:56:50.656Z,11.75
2022-11-30T10:59:24.996Z,11.18
2022-11-30T11:01:54.882Z,11.80
2022-11-30T11:04:25.428Z,11.90
2022-11-30T11:07:02.666Z,12.38
2022-11-30T11:09:46.997Z,12.43
2022-11-30T11:12:30.570Z,12.98
2022-11-30T11:15:17.066Z,11.07
2022-11-30T11:17:44.690Z,12.68
2022-11-30T11:20:33.458Z,13.20
2022-11-30T11:23:01.094Z,10.27
2022-11-30T11:25:36.857Z,10.98
2022-11-30T11:28:09.066Z,11.75
2022-11-30T11:30:37.641Z,13.40
2022-11-30T11:33:22.949Z,12.60
2022-11-30T11:35:53.078Z,11.25
2022-11-30T11:38:39.105Z,11.13
2022-11-30T11:41:19.055Z,12.30
2022-11-30T11:44:22.559Z,12.07
2022-11-30T11:49:27.375Z,11.30
2022-11-30T11:52:16.341Z,12.18
2022-11-30T11:55:16.248Z,12.18
2022-11-30T11:57:58.838Z,10.07
2022-11-30T12:00:26.143Z,12.50
2022-11-30T12:02:57.832Z,11.68
2022-11-30T12:05:36.180Z,12.82
2022-11-30T12:08:15.711Z,14.60
2022-11-30T12:11:00.776Z,12.10
2022-11-30T12:13:33.883Z,14.23
2022-11-30T12:16:06.583Z,14.88
2022-11-30T12:18:54.693Z,14.85
2022-11-30T12:21:36.774Z,11.25
2022-11-30T12:24:12.447Z,14.70
2022-11-30T12:26:48.707Z,12.00
2022-11-30T12:29:29.795Z,12.18
2022-11-30T12:32:10.752Z,12.52
2022-11-30T12:35:00.957Z,12.35
2022-11-30T12:37:47.901Z,12.13
2022-11-30T12:40:41.484Z,12.20
2022-11-30T12:43:08.366Z,12.80
2022-11-30T12:45:41.211Z,11.88
2022-11-30T12:48:28.955Z,11.85
2022-11-30T12:51:29.966Z,12.85
2022-11-30T12:54:33.224Z,13.48
2022-11-30T12:57:09.544Z,10.70
2022-11-30T12:59:48.147Z,13.57
2022-11-30T13:02:48.759Z,13.27
2022-11-30T13:05:22.787Z,13.63
2022-11-30T13:07:57.144Z,13.90
2022-11-30T13:10:33.870Z,13.90
2022-11-30T13:13:04.454Z,13.70
2022-11-30T13:15:34.828Z,12.57
2022-11-30T13:18:03.276Z,14.48
2022-11-30T13:20:53.583Z,14.68
2022-11-30T13:23:23.821Z,13.80
2022-11-30T13:26:12.642Z,14.70
2022-11-30T13:29:06.056Z,14.80
2022-11-30T13:31:43.643Z,14.60
2022-11-30T13:34:37.304Z,13.18
2022-11-30T13:37:12.662Z,12.93
2022-11-30T13:39:49.178Z,13.23
2022-11-30T13:42:37.887Z,13.98
2022-11-30T13:45:14.417Z,16.08
2022-11-30T13:47:54.700Z,15.32
2022-11-30T13:50:34.147Z,14.32
2022-11-30T13:53:01.790Z,14.98
2022-11-30T13:55:47.726Z,15.18
2022-11-30T13:58:16.625Z,15.10
2022-11-30T14:01:29.593Z,15.43
2022-11-30T14:04:14.769Z,14.07
2022-11-30T14:06:41.941Z,15.05
2022-11-30T14:09:34.382Z,15.27
2022-11-30T14:12:47.792Z,15.27
2022-11-30T14:15:31.860Z,15.50
2022-11-30T14:18:00.987Z,15.55
2022-11-30T14:20:52.109Z,15.55
2022-11-30T14:23:45.098Z,15.68
2022-11-30T14:26:15.679Z,15.10
2022-11-30T14:28:57.354Z,16.98
2022-11-30T14:31:30.714Z,17.75
2022-11-30T14:34:04.996Z,16.25
2022-11-30T14:36:40.306Z,30.58
2022-11-30T14:39:43.566Z,19.70
2022-11-30T14:42:21.894Z,16.38
2022-11-30T14:44:49.679Z,15.88
2022-11-30T14:47:20.983Z,13.90
2022-11-30T14:49:52.428Z,15.77
2022-11-30T14:53:04.580Z,15.13
2022-11-30T14:56:05.518Z,15.75
2022-11-30T14:58:53.038Z,17.92
2022-11-30T15:01:25.124Z,17.77
2022-11-30T15:03:55.233Z,16.42
2022-11-30T15:06:28.177Z,17.33
2022-11-30T15:08:58.730Z,17.15
2022-11-30T15:11:27.139Z,16.60
2022-11-30T15:13:56.888Z,15.65
2022-11-30T15:16:29.031Z,18.35
2022-11-30T15:18:58.018Z,16.90
2022-11-30T15:21:30.931Z,16.52
2022-11-30T15:24:00.035Z,17.85
2022-11-30T15:26:46.140Z,17.85
2022-11-30T15:29:20.772Z,18.77
2022-11-30T15:31:51.665Z,16.73
2022-11-30T15:34:29.552Z,17.58
2022-11-30T15:36:58.543Z,17.17
2022-11-30T15:39:28.023Z,16.30
2022-11-30T15:42:01.410Z,17.88
2022-11-30T15:44:45.522Z,17.90
2022-11-30T15:47:38.528Z,17.08
2022-11-30T15:50:32.842Z,18.20
2022-11-30T15:53:02.901Z,17.95
2022-11-30T15:55:44.457Z,16.70
2022-11-30T15:58:45.396Z,16.85
2022-11-30T16:01:19.438Z,17.98
2022-11-30T16:03:56.156Z,17.63
2022-11-30T16:06:25.384Z,17.17
2022-11-30T16:08:53.685Z,18.15
2022-11-30T16:11:21.352Z,17.83
2022-11-30T16:13:48.985Z,18.13
2022-11-30T16:16:21.899Z,17.30
2022-11-30T16:18:50.131Z,16.75
2022-11-30T16:21:19.179Z,17.95
2022-11-30T16:23:47.764Z,18.25
2022-11-30T16:26:51.982Z,18.75
2022-11-30T16:29:04.683Z,19.02
2022-11-30T16:31:31.817Z,18.00
2022-11-30T16:33:59.162Z,15.65
2022-11-30T16:36:26.429Z,18.00
2022-11-30T16:38:53.974Z,17.75
2022-11-30T16:41:26.467Z,18.10
2022-11-30T16:43:55.883Z,17.17
2022-11-30T16:46:25.385Z,17.40
2022-11-30T16:48:53.095Z,15.65
2022-11-30T16:51:24.678Z,15.50
2022-11-30T16:53:52.365Z,15.77
2022-11-30T16:56:19.509Z,17.20
2022-11-30T16:58:46.802Z,16.05
2022-11-30T17:01:33.389Z,16.15
2022-11-30T17:04:09.741Z,15.10
2022-11-30T17:06:36.652Z,16.10
2022-11-30T17:09:04.194Z,14.25
2022-11-30T17:11:37.055Z,16.20
2022-11-30T17:14:04.896Z,17.55
2022-11-30T17:16:32.074Z,16.40
2022-11-30T17:18:59.323Z,16.70
2022-11-30T17:21:32.698Z,17.48
2022-11-30T17:24:00.535Z,17.13
2022-11-30T17:26:27.934Z,17.05
2022-11-30T17:28:55.125Z,18.67
2022-11-30T17:31:22.266Z,19.58
2022-11-30T17:33:49.915Z,21.73
2022-11-30T17:36:18.819Z,19.95
2022-11-30T17:38:46.159Z,21.35
2022-11-30T17:41:19.105Z,22.85
2022-11-30T17:43:47.315Z,22.17
2022-11-30T17:46:17.882Z,20.35
2022-11-30T17:48:45.967Z,19.08
2022-11-30T17:51:13.319Z,18.92
2022-11-30T17:53:41.975Z,20.02
2022-11-30T17:56:11.904Z,19.10
2022-11-30T17:58:43.892Z,18.05
2022-11-30T18:01:19.187Z,21.50
2022-11-30T18:03:47.345Z,17.25
2022-11-30T18:06:14.996Z,14.38
2022-11-30T18:08:42.851Z,15.43
2022-11-30T18:11:11.717Z,17.90
2022-11-30T18:13:40.091Z,16.95
2022-11-30T18:16:12.750Z,18.48
2022-11-30T18:21:16.348Z,13.65
2022-11-30T18:23:43.712Z,17.42
2022-11-30T18:26:16.405Z,13.85
2022-11-30T18:28:44.512Z,13.20
2022-11-30T18:31:11.810Z,13.52
2022-11-30T18:33:39.285Z,12.75
2022-11-30T18:36:07.739Z,13.68
2022-11-30T18:38:38.326Z,12.23
2022-11-30T18:41:06.676Z,11.02
2022-11-30T18:43:34.917Z,11.05
2022-11-30T18:46:06.639Z,11.88
2022-11-30T18:48:34.278Z,11.32
2022-11-30T18:51:13.303Z,11.50
2022-11-30T18:53:41.227Z,10.35
2022-11-30T18:56:17.076Z,11.05
2022-11-30T18:58:45.098Z,16.67
2022-11-30T19:01:18.264Z,15.75
2022-11-30T19:03:53.315Z,12.57
2022-11-30T19:06:20.463Z,15.18
2022-11-30T19:08:49.056Z,15.55
2022-11-30T19:11:17.065Z,14.07
2022-11-30T19:13:45.031Z,12.13
2022-11-30T19:16:17.339Z,15.98
2022-11-30T19:18:47.704Z,13.88
2022-11-30T19:21:16.566Z,12.85
2022-11-30T19:23:44.687Z,13.32
2022-11-30T19:26:12.077Z,12.48
2022-11-30T19:28:40.510Z,13.35
2022-11-30T19:31:14.754Z,12.88
2022-11-30T19:33:44.228Z,15.57
2022-11-30T19:36:14.697Z,14.50
2022-11-30T19:38:41.965Z,14.02
2022-11-30T19:41:10.502Z,12.10
2022-11-30T19:43:38.027Z,12.25
2022-11-30T19:46:16.068Z,13.10
2022-11-30T19:48:43.921Z,14.38
2022-11-30T19:51:18.337Z,14.95
2022-11-30T19:53:46.282Z,12.50
2022-11-30T19:56:17.289Z,13.73
2022-11-30T19:58:46.027Z,13.88
2022-11-30T20:01:19.537Z,16.25
2022-11-30T20:03:46.867Z,15.40
2022-11-30T20:06:13.823Z,14.57
2022-11-30T20:08:41.444Z,14.93
2022-11-30T20:11:09.823Z,15.35
2022-11-30T20:13:37.745Z,14.77
2022-11-30T20:16:09.719Z,13.88
2022-11-30T20:18:41.329Z,14.52
2022-11-30T20:21:21.934Z,11.48
2022-11-30T20:23:49.811Z,14.18
2022-11-30T20:26:37.949Z,11.82
2022-11-30T20:29:06.750Z,11.80
2022-11-30T20:31:35.835Z,12.52
2022-11-30T20:34:04.599Z,10.80
2022-11-30T20:36:31.850Z,10.75
2022-11-30T20:38:59.405Z,11.75
2022-11-30T20:41:27.202Z,11.73
2022-11-30T20:43:54.753Z,12.35
2022-11-30T20:46:33.521Z,8.77
2022-11-30T20:49:01.543Z,13.15
2022-11-30T20:51:32.407Z,14.10
2022-11-30T20:54:02.168Z,14.15
2022-11-30T20:56:29.641Z,9.88
2022-11-30T20:58:59.019Z,11.50
2022-11-30T21:01:26.185Z,14.45
2022-11-30T21:03:53.309Z,15.88
2022-11-30T21:06:20.879Z,10.20
2022-11-30T21:08:47.799Z,9.48
2022-11-30T21:11:17.739Z,9.52
2022-11-30T21:13:47.050Z,9.30
2022-11-30T21:16:16.705Z,10.63
2022-11-30T21:18:45.316Z,12.63
2022-11-30T21:21:12.452Z,9.05
2022-11-30T21:23:39.735Z,9.85
2022-11-30T21:26:09.030Z,11.15
2022-11-30T21:28:38.290Z,11.60
2022-11-30T21:31:06.098Z,12.63
2022-11-30T21:33:33.599Z,9.25
2022-11-30T21:36:06.301Z,10.30
2022-11-30T21:38:33.350Z,10.35
2022-11-30T21:41:01.602Z,8.82
2022-11-30T21:43:30.524Z,8.93
2022-11-30T21:46:06.372Z,10.82
2022-11-30T21:48:35.924Z,11.85
2022-11-30T21:51:06.347Z,11.88
2022-11-30T21:53:36.857Z,14.38
2022-11-30T21:56:06.021Z,10.88
2022-11-30T21:58:33.622Z,11.32
2022-11-30T22:01:02.472Z,11.10
2022-11-30T22:03:29.910Z,13.05
2022-11-30T22:06:02.247Z,11.90
2022-11-30T22:08:29.788Z,13.27
2022-11-30T22:11:21.823Z,12.65
2022-11-30T22:13:53.605Z,11.75
2022-11-30T22:16:22.706Z,13.35
2022-11-30T22:18:52.703Z,12.98
2022-11-30T22:21:23.709Z,11.98
2022-11-30T22:23:59.433Z,12.88
2022-11-30T22:26:31.861Z,12.85
2022-11-30T22:29:02.107Z,12.80
2022-11-30T22:31:32.068Z,14.60
2022-11-30T22:33:59.495Z,14.88
2022-11-30T22:36:29.663Z,15.18
2022-11-30T22:38:59.121Z,14.48
2022-11-30T22:41:27.254Z,16.70
2022-11-30T22:43:55.511Z,16.25
2022-11-30T22:46:31.242Z,14.00
2022-11-30T22:49:02.889Z,15.77
2022-11-30T22:51:32.391Z,15.27
2022-11-30T22:53:59.934Z,16.70
2022-11-30T22:56:30.316Z,14.50
2022-11-30T22:59:01.623Z,15.13
2022-11-30T23:01:35.566Z,17.10
2022-11-30T23:04:09.121Z,17.52
2022-11-30T23:06:38.370Z,16.58
2022-11-30T23:09:06.936Z,18.00
2022-11-30T23:11:34.441Z,18.08
2022-11-30T23:14:05.445Z,18.30
2022-11-30T23:16:32.607Z,19.50
2022-11-30T23:19:00.584Z,16.73
2022-11-30T23:21:30.678Z,19.98
2022-11-30T23:24:01.665Z,19.73
2022-11-30T23:26:35.092Z,18.50
2022-11-30T23:29:11.004Z,20.20
2022-11-30T23:31:40.633Z,18.58
2022-11-30T23:34:10.676Z,20.40
2022-11-30T23:36:38.263Z,18.52
2022-11-30T23:39:08.521Z,18.48
2022-11-30T23:41:36.206Z,18.58
2022-11-30T23:44:03.335Z,19.73
2022-11-30T23:46:30.765Z,19.08
2022-11-30T23:48:57.836Z,17.77
2022-11-30T23:51:25.522Z,17.95
2022-11-30T23:53:52.651Z,17.50
2022-11-30T23:56:21.394Z,16.58
2022-11-30T23:58:48.702Z,17.48
